Time;durP1;ratioP1;P1;durP2;ratioP2;P2;SDS_P1;SDS_P2;PMS_P1;PMS_P2;Temp;Humidity;BMP_temperature;BMP_pressure;BME280_temperature;BME280_humidity;BME280_pressure;Samples;Min_cycle;Max_cycle;Signal;HPM_P1;HPM_P2
2021/08/05 00:02:14;;;;;;;10.83;7.73;;;13.30;99.90;;;;;;5230260;28;20294;-65
2021/08/05 00:04:46;;;;;;;16.33;8.97;;;13.30;99.90;;;;;;5196645;28;20240;-68
2021/08/05 00:07:19;;;;;;;11.70;8.03;;;13.20;99.90;;;;;;5229982;28;20523;-68
2021/08/05 00:09:51;;;;;;;12.43;8.23;;;13.20;99.90;;;;;;5229941;28;20621;-65
2021/08/05 00:12:22;;;;;;;12.17;8.60;;;13.20;99.90;;;;;;5229938;28;20560;-66
2021/08/05 00:14:54;;;;;;;13.17;8.10;;;13.20;99.90;;;;;;5228949;28;20217;-65
2021/08/05 00:17:26;;;;;;;10.23;8.03;;;13.10;99.90;;;;;;5229900;28;20685;-64
2021/08/05 00:19:59;;;;;;;12.53;8.50;;;13.10;99.90;;;;;;5229196;28;20209;-64
2021/08/05 00:22:31;;;;;;;12.77;8.23;;;13.10;99.90;;;;;;5229285;28;20209;-63
2021/08/05 00:25:05;;;;;;;18.80;9.27;;;13.10;99.90;;;;;;5229334;28;20232;-63
2021/08/05 00:27:37;;;;;;;14.93;8.60;;;13.10;99.90;;;;;;5228623;28;20259;-65
2021/08/05 00:30:11;;;;;;;12.57;9.00;;;13.00;99.90;;;;;;5229021;28;20318;-65
2021/08/05 00:32:43;;;;;;;14.03;9.37;;;13.00;99.90;;;;;;5211786;28;20229;-62
2021/08/05 00:35:18;;;;;;;13.80;8.53;;;13.00;99.90;;;;;;5228925;28;20229;-66
2021/08/05 00:37:50;;;;;;;12.47;9.13;;;13.00;99.90;;;;;;5229368;28;20209;-65
2021/08/05 00:40:22;;;;;;;13.23;9.20;;;13.00;99.90;;;;;;5228227;28;20216;-65
2021/08/05 00:42:54;;;;;;;18.13;10.07;;;12.90;99.90;;;;;;5228296;28;20220;-66
2021/08/05 00:45:26;;;;;;;15.93;9.83;;;12.90;99.90;;;;;;5228917;28;20233;-68
2021/08/05 00:48:00;;;;;;;18.87;9.53;;;13.00;99.90;;;;;;5228217;28;20624;-65
2021/08/05 00:50:33;;;;;;;13.67;8.90;;;12.90;99.90;;;;;;5228932;28;20215;-68
2021/08/05 00:53:05;;;;;;;15.47;9.77;;;12.90;99.90;;;;;;5227541;28;20205;-66
2021/08/05 00:55:37;;;;;;;15.20;9.07;;;12.90;99.90;;;;;;5229193;28;20205;-65
2021/08/05 00:58:11;;;;;;;15.90;9.80;;;12.90;99.90;;;;;;5227878;28;20236;-64
2021/08/05 01:00:55;;;;;;;17.47;10.00;;;12.90;99.90;;;;;;5228037;28;20209;-65
2021/08/05 01:03:31;;;;;;;16.33;10.00;;;12.90;99.90;;;;;;5228816;28;20302;-65
2021/08/05 01:06:20;;;;;;;20.17;11.33;;;12.90;99.90;;;;;;5228835;28;20185;-64
2021/08/05 01:09:29;;;;;;;16.23;10.47;;;12.90;99.90;;;;;;5228248;28;20316;-63
2021/08/05 01:12:10;;;;;;;13.87;9.23;;;12.80;99.90;;;;;;5220052;28;20233;-63
2021/08/05 01:14:50;;;;;;;15.43;10.27;;;12.80;99.90;;;;;;5227840;28;20527;-64
2021/08/05 01:17:26;;;;;;;14.57;9.80;;;12.80;99.90;;;;;;5228662;28;20279;-66
2021/08/05 01:20:01;;;;;;;14.93;10.00;;;12.80;99.90;;;;;;5228927;28;20196;-65
2021/08/05 01:22:45;;;;;;;15.90;9.10;;;12.80;99.90;;;;;;5228460;28;20667;-66
2021/08/05 01:25:41;;;;;;;14.87;10.07;;;12.80;99.90;;;;;;5228307;28;20209;-64
2021/08/05 01:28:16;;;;;;;16.57;9.70;;;12.80;99.90;;;;;;5228702;28;20237;-63
2021/08/05 01:30:50;;;;;;;15.23;9.87;;;12.90;99.90;;;;;;5228629;28;20255;-65
2021/08/05 01:33:25;;;;;;;14.67;9.90;;;12.90;99.90;;;;;;5227741;28;20232;-65
2021/08/05 01:35:58;;;;;;;13.70;9.43;;;13.00;99.90;;;;;;5228827;28;20204;-63
2021/08/05 01:38:33;;;;;;;18.27;9.90;;;13.00;99.90;;;;;;5228588;28;20225;-65
2021/08/05 01:41:08;;;;;;;17.13;10.57;;;13.00;99.90;;;;;;5228639;28;20539;-65
2021/08/05 01:43:41;;;;;;;11.77;8.90;;;13.00;99.90;;;;;;5227882;28;20302;-64
2021/08/05 01:46:14;;;;;;;13.27;9.87;;;13.00;99.90;;;;;;5228542;28;20205;-68
2021/08/05 01:48:47;;;;;;;16.03;10.33;;;13.00;99.90;;;;;;5226860;28;20264;-64
2021/08/05 01:51:21;;;;;;;12.70;8.80;;;13.00;99.90;;;;;;5228238;28;20209;-68
2021/08/05 01:53:53;;;;;;;13.20;8.53;;;13.00;99.90;;;;;;5228350;28;20217;-67
2021/08/05 01:56:25;;;;;;;16.30;9.97;;;13.00;99.90;;;;;;5226906;28;20621;-65
2021/08/05 01:58:59;;;;;;;12.60;9.23;;;13.00;99.90;;;;;;5228475;28;20245;-68
2021/08/05 02:01:31;;;;;;;13.30;9.33;;;13.00;99.90;;;;;;5227517;28;20536;-64
2021/08/05 02:04:12;;;;;;;15.47;9.17;;;13.00;99.90;;;;;;5229427;28;20229;-65
2021/08/05 02:07:07;;;;;;;14.30;8.77;;;13.00;99.90;;;;;;5232220;28;20487;-65
2021/08/05 02:09:54;;;;;;;14.93;9.20;;;13.00;99.90;;;;;;5231065;28;20209;-66
2021/08/05 02:12:35;;;;;;;13.57;9.53;;;13.00;99.90;;;;;;5231968;28;20252;-63
2021/08/05 02:15:08;;;;;;;16.63;8.93;;;13.00;99.90;;;;;;5232503;28;20263;-65
2021/08/05 02:17:43;;;;;;;12.93;8.80;;;13.00;99.90;;;;;;5231186;28;20229;-65
2021/08/05 02:20:17;;;;;;;14.07;8.83;;;13.00;99.90;;;;;;5232909;28;20219;-66
2021/08/05 02:22:51;;;;;;;12.60;8.77;;;12.90;99.90;;;;;;5233015;28;20668;-63
2021/08/05 02:25:24;;;;;;;13.47;10.00;;;12.90;99.90;;;;;;5231597;28;20225;-65
2021/08/05 02:27:56;;;;;;;12.40;8.77;;;12.90;99.90;;;;;;5232417;28;20249;-63
2021/08/05 02:30:29;;;;;;;14.07;8.67;;;12.90;99.90;;;;;;5231277;28;20209;-63
2021/08/05 02:33:02;;;;;;;12.10;8.80;;;12.80;99.90;;;;;;5232274;28;20229;-64
2021/08/05 02:35:37;;;;;;;15.47;8.80;;;12.80;99.90;;;;;;5231254;28;20210;-64
2021/08/05 02:38:13;;;;;;;13.47;9.23;;;12.80;99.90;;;;;;5232369;28;20232;-66
2021/08/05 02:40:47;;;;;;;15.77;9.20;;;12.80;99.90;;;;;;5215134;28;20514;-66
2021/08/05 02:43:21;;;;;;;11.20;8.30;;;12.80;99.90;;;;;;5231658;28;20233;-65
2021/08/05 02:45:54;;;;;;;15.20;8.47;;;12.70;99.90;;;;;;5214964;28;20486;-65
2021/08/05 02:48:27;;;;;;;14.40;9.63;;;12.70;99.90;;;;;;5232177;28;20312;-65
2021/08/05 02:51:02;;;;;;;14.50;9.83;;;12.70;99.90;;;;;;5231001;28;20679;-67
2021/08/05 02:53:35;;;;;;;12.97;8.57;;;12.70;99.90;;;;;;5231032;28;20221;-66
2021/08/05 02:56:09;;;;;;;13.53;8.20;;;12.60;99.90;;;;;;5231152;28;20201;-65
2021/08/05 02:58:45;;;;;;;12.00;8.03;;;12.60;99.90;;;;;;5230692;28;20688;-65
2021/08/05 03:01:20;;;;;;;11.67;8.47;;;12.60;99.90;;;;;;5231185;28;20205;-65
2021/08/05 03:03:53;;;;;;;10.57;8.07;;;12.50;99.90;;;;;;5230600;28;20333;-65
2021/08/05 03:06:27;;;;;;;13.03;8.03;;;12.60;99.90;;;;;;5231268;28;20520;-67
2021/08/05 03:09:01;;;;;;;14.43;8.63;;;12.60;99.90;;;;;;5230939;28;20586;-67
2021/08/05 03:11:34;;;;;;;10.17;7.27;;;12.50;99.90;;;;;;5229965;28;20201;-63
2021/08/05 03:14:06;;;;;;;12.67;8.33;;;12.50;99.90;;;;;;5229912;28;20229;-65
2021/08/05 03:16:38;;;;;;;13.30;9.20;;;12.50;99.90;;;;;;5212491;28;20235;-65
2021/08/05 03:19:10;;;;;;;11.73;7.60;;;12.60;99.90;;;;;;5229605;28;20316;-66
2021/08/05 03:21:45;;;;;;;11.50;7.77;;;12.60;99.90;;;;;;5230820;28;20667;-64
2021/08/05 03:24:17;;;;;;;11.10;7.97;;;12.60;99.90;;;;;;5230092;28;20236;-68
2021/08/05 03:26:49;;;;;;;12.63;7.70;;;12.60;99.90;;;;;;5229702;28;20202;-66
2021/08/05 03:29:21;;;;;;;12.10;7.73;;;12.60;99.90;;;;;;5230306;28;20226;-63
2021/08/05 03:31:55;;;;;;;12.07;7.87;;;12.60;99.90;;;;;;5230522;28;20198;-64
2021/08/05 03:34:27;;;;;;;12.43;8.27;;;12.70;99.90;;;;;;5230458;28;20226;-65
2021/08/05 03:37:01;;;;;;;10.70;7.67;;;12.70;99.90;;;;;;5230677;28;20220;-63
2021/08/05 03:39:33;;;;;;;11.00;7.30;;;12.70;99.90;;;;;;5229427;28;20730;-65
2021/08/05 03:42:05;;;;;;;11.57;7.33;;;12.80;99.90;;;;;;5230179;28;20221;-66
2021/08/05 03:44:40;;;;;;;11.53;7.33;;;12.80;99.90;;;;;;5228880;28;20230;-66
2021/08/05 03:47:12;;;;;;;11.73;7.77;;;12.90;99.90;;;;;;5213175;28;20201;-65
2021/08/05 03:49:44;;;;;;;11.40;7.20;;;12.90;99.90;;;;;;5229034;28;20221;-66
2021/08/05 03:52:17;;;;;;;10.90;7.20;;;12.90;99.90;;;;;;5230120;28;20252;-66
2021/08/05 03:55:12;;;;;;;16.63;9.07;;;13.00;99.90;;;;;;5215304;28;20244;-65
2021/08/05 03:57:46;;;;;;;11.43;8.20;;;13.00;99.90;;;;;;5229740;28;20233;-65
2021/08/05 04:00:19;;;;;;;10.50;6.87;;;13.00;99.90;;;;;;5230165;28;20205;-65
2021/08/05 04:02:53;;;;;;;11.20;6.70;;;13.10;99.90;;;;;;5230152;28;20212;-64
2021/08/05 04:05:25;;;;;;;13.10;6.93;;;13.20;99.90;;;;;;5229539;28;20354;-65
2021/08/05 04:07:58;;;;;;;7.43;5.90;;;13.30;99.90;;;;;;5228576;28;20229;-66
2021/08/05 04:10:30;;;;;;;6.67;4.93;;;13.40;99.90;;;;;;5228466;28;20212;-67
2021/08/05 04:13:01;;;;;;;6.47;5.33;;;13.40;99.90;;;;;;5212198;28;20255;-66
2021/08/05 04:15:36;;;;;;;9.33;5.43;;;13.50;99.90;;;;;;5228450;28;20209;-66
2021/08/05 04:18:08;;;;;;;6.87;4.80;;;13.60;99.90;;;;;;5228452;28;20301;-66
2021/08/05 04:20:40;;;;;;;7.07;4.83;;;13.70;99.90;;;;;;5229730;28;20244;-70
2021/08/05 04:23:14;;;;;;;6.70;4.77;;;13.70;99.90;;;;;;5228581;28;20221;-66
2021/08/05 04:25:46;;;;;;;7.33;5.67;;;13.90;99.90;;;;;;5228174;28;20298;-66
2021/08/05 04:28:23;;;;;;;9.50;5.00;;;14.00;99.90;;;;;;5228697;28;20201;-67
2021/08/05 04:30:57;;;;;;;5.93;4.63;;;14.10;99.90;;;;;;5229717;28;20221;-65
2021/08/05 04:33:31;;;;;;;5.90;3.93;;;14.20;99.90;;;;;;5229260;28;20232;-67
2021/08/05 04:36:03;;;;;;;7.17;5.27;;;14.30;99.90;;;;;;5229202;28;20217;-65
2021/08/05 04:38:35;;;;;;;6.77;4.63;;;14.50;99.90;;;;;;5228497;28;20644;-66
2021/08/05 04:41:07;;;;;;;6.00;4.00;;;14.60;99.90;;;;;;5229237;28;20209;-66
2021/08/05 04:43:39;;;;;;;7.10;4.10;;;14.80;99.90;;;;;;5228214;28;20259;-65
2021/08/05 04:46:11;;;;;;;7.90;4.20;;;15.00;99.90;;;;;;5244449;28;20237;-64
2021/08/05 04:48:43;;;;;;;3.73;3.13;;;15.10;99.90;;;;;;5229230;28;20229;-66
2021/08/05 04:51:18;;;;;;;8.63;3.93;;;15.30;99.90;;;;;;5228921;28;20206;-67
2021/08/05 04:53:49;;;;;;;7.10;3.63;;;15.50;99.90;;;;;;5228172;28;20216;-66
2021/08/05 04:56:21;;;;;;;6.90;3.07;;;15.80;99.90;;;;;;5228303;28;20640;-64
2021/08/05 04:58:56;;;;;;;8.87;3.30;;;16.00;99.90;;;;;;5228719;28;20264;-63
2021/08/05 05:01:27;;;;;;;7.93;3.13;;;16.20;99.90;;;;;;5228872;28;20529;-64
2021/08/05 05:04:00;;;;;;;8.93;3.90;;;16.40;99.90;;;;;;5228871;28;20209;-63
2021/08/05 05:06:34;;;;;;;6.03;3.27;;;16.70;99.90;;;;;;5229206;28;20225;-67
2021/08/05 05:09:06;;;;;;;5.27;3.27;;;16.90;99.90;;;;;;5228935;28;20204;-65
2021/08/05 05:11:38;;;;;;;5.50;3.30;;;17.10;99.90;;;;;;5227651;28;20212;-64
2021/08/05 05:14:12;;;;;;;6.93;3.40;;;17.30;99.90;;;;;;5228094;28;20208;-63
2021/08/05 05:16:44;;;;;;;5.57;2.35;;;17.50;99.90;;;;;;5227942;28;20205;-65
2021/08/05 05:19:20;;;;;;;3.75;2.47;;;17.70;99.90;;;;;;5227546;28;20209;-64
2021/08/05 05:21:52;;;;;;;4.55;2.10;;;17.90;99.90;;;;;;5227674;28;20209;-65
2021/08/05 05:24:27;;;;;;;2.83;1.90;;;17.90;99.90;;;;;;5227608;28;20190;-68
2021/08/05 05:27:01;;;;;;;3.25;2.10;;;18.00;99.90;;;;;;5228500;28;20208;-64
2021/08/05 05:29:34;;;;;;;4.30;2.08;;;17.90;99.90;;;;;;5228892;28;20318;-64
2021/08/05 05:32:10;;;;;;;2.85;1.90;;;17.80;99.90;;;;;;5228594;28;20205;-66
2021/08/05 05:34:42;;;;;;;2.78;2.08;;;17.80;99.90;;;;;;5227690;28;20189;-63
2021/08/05 05:37:14;;;;;;;2.85;1.77;;;17.70;99.90;;;;;;5228422;28;20256;-64
2021/08/05 05:39:45;;;;;;;3.47;1.90;;;17.70;99.90;;;;;;5232043;28;20216;-65
2021/08/05 05:42:18;;;;;;;4.60;1.70;;;17.80;99.90;;;;;;5232356;28;20629;-65
2021/08/05 05:44:51;;;;;;;2.92;2.03;;;17.70;99.90;;;;;;5232423;28;20307;-66
2021/08/05 05:47:23;;;;;;;5.20;1.85;;;17.80;99.90;;;;;;5231831;28;20212;-65
2021/08/05 05:49:57;;;;;;;2.60;1.80;;;17.90;99.90;;;;;;5247831;28;20201;-66
2021/08/05 05:52:30;;;;;;;3.58;1.77;;;18.00;99.90;;;;;;5248459;28;20204;-66
2021/08/05 05:55:05;;;;;;;5.40;2.40;;;18.10;99.90;;;;;;5231297;28;20267;-62
2021/08/05 05:57:39;;;;;;;2.22;1.60;;;18.10;99.90;;;;;;5232513;28;20546;-66
2021/08/05 06:00:12;;;;;;;4.15;2.03;;;18.30;99.90;;;;;;5232381;28;20270;-62
2021/08/05 06:02:45;;;;;;;2.72;1.83;;;18.30;99.90;;;;;;5231812;28;20477;-67
2021/08/05 06:05:17;;;;;;;2.33;1.60;;;18.30;99.90;;;;;;5231502;28;20225;-66
2021/08/05 06:07:51;;;;;;;4.28;1.60;;;18.30;99.90;;;;;;5231397;28;20194;-63
2021/08/05 06:10:23;;;;;;;4.60;1.52;;;18.40;99.90;;;;;;5231828;28;20524;-66
2021/08/05 06:12:58;;;;;;;3.03;1.48;;;18.40;99.90;;;;;;5232460;28;20609;-61
2021/08/05 06:15:30;;;;;;;3.92;1.52;;;18.60;99.90;;;;;;5232266;28;20243;-62
2021/08/05 06:18:04;;;;;;;2.25;1.25;;;19.80;99.90;;;;;;5230680;28;20216;-63
2021/08/05 06:20:38;;;;;;;6.07;1.50;;;20.90;99.90;;;;;;5231896;28;20205;-66
2021/08/05 06:23:12;;;;;;;1.63;0.90;;;21.10;99.90;;;;;;5214474;28;20709;-67
2021/08/05 06:25:44;;;;;;;3.58;1.15;;;20.90;99.90;;;;;;5231778;28;20241;-64
2021/08/05 06:28:18;;;;;;;1.52;1.00;;;20.40;99.90;;;;;;5232177;28;20256;-67
2021/08/05 06:30:54;;;;;;;1.95;0.98;;;19.90;99.90;;;;;;5231399;28;20228;-63
2021/08/05 06:33:26;;;;;;;3.00;1.20;;;19.50;99.90;;;;;;5230901;28;20305;-64
2021/08/05 06:36:01;;;;;;;1.92;1.02;;;19.50;99.90;;;;;;5231750;28;20244;-65
2021/08/05 06:38:33;;;;;;;1.10;1.00;;;19.50;99.90;;;;;;5231815;28;20259;-65
2021/08/05 06:41:09;;;;;;;2.83;1.23;;;19.40;99.90;;;;;;5231357;28;20233;-65
2021/08/05 06:43:41;;;;;;;4.75;1.40;;;19.20;99.90;;;;;;5214167;28;20202;-61
2021/08/05 06:46:13;;;;;;;1.50;1.05;;;19.10;99.90;;;;;;5230465;28;20575;-64
2021/08/05 06:48:47;;;;;;;1.92;1.10;;;19.80;99.90;;;;;;5213524;28;20248;-62
2021/08/05 06:51:21;;;;;;;1.30;0.80;;;20.80;99.90;;;;;;5229230;28;20310;-64
2021/08/05 06:53:54;;;;;;;2.05;1.02;;;22.40;99.90;;;;;;5231249;28;20205;-64
2021/08/05 06:56:26;;;;;;;0.80;0.60;;;24.40;99.90;;;;;;5230948;28;20234;-62
2021/08/05 06:59:00;;;;;;;1.60;0.90;;;25.20;99.90;;;;;;5230854;28;20241;-64
2021/08/05 07:01:34;;;;;;;1.10;0.57;;;25.20;99.90;;;;;;5230983;28;20232;-64
2021/08/05 07:04:09;;;;;;;1.27;1.00;;;25.40;99.90;;;;;;5229840;28;20240;-62
2021/08/05 07:06:43;;;;;;;0.90;0.75;;;26.00;99.90;;;;;;5230368;28;20233;-64
2021/08/05 07:09:15;;;;;;;1.88;0.75;;;26.00;99.90;;;;;;5230051;28;20200;-63
2021/08/05 07:11:50;;;;;;;1.85;0.90;;;24.80;99.90;;;;;;5229643;28;20236;-63
2021/08/05 07:14:24;;;;;;;2.30;1.08;;;23.30;99.90;;;;;;5213770;28;20211;-64
2021/08/05 07:16:57;;;;;;;2.22;0.93;;;23.10;99.90;;;;;;5230658;28;20229;-67
2021/08/05 07:19:31;;;;;;;0.95;0.70;;;23.10;99.90;;;;;;5231202;28;20275;-63
2021/08/05 07:22:03;;;;;;;1.58;0.73;;;22.40;99.90;;;;;;5230779;28;20229;-63
2021/08/05 07:24:37;;;;;;;3.50;1.10;;;21.90;99.90;;;;;;5231002;28;20232;-64
2021/08/05 07:27:09;;;;;;;1.73;0.95;;;21.70;99.90;;;;;;5213536;28;20309;-62
2021/08/05 07:29:44;;;;;;;1.77;1.13;;;22.00;99.90;;;;;;5230382;28;20221;-64
2021/08/05 07:32:18;;;;;;;1.27;0.80;;;22.40;99.90;;;;;;5229673;28;20687;-64
2021/08/05 07:34:50;;;;;;;1.85;1.10;;;22.80;99.90;;;;;;5229428;28;20205;-63
2021/08/05 07:37:23;;;;;;;1.45;0.90;;;22.90;99.90;;;;;;5230254;28;20233;-64
2021/08/05 07:39:55;;;;;;;6.57;1.45;;;23.40;99.90;;;;;;5230113;28;20205;-64
2021/08/05 07:42:27;;;;;;;1.20;0.90;;;23.70;99.90;;;;;;5230376;28;20236;-62
2021/08/05 07:44:59;;;;;;;1.85;1.20;;;23.60;99.90;;;;;;5230168;28;20248;-62
2021/08/05 07:47:32;;;;;;;1.30;0.90;;;23.20;99.90;;;;;;5229390;28;20228;-68
2021/08/05 07:50:09;;;;;;;1.42;1.00;;;23.10;99.90;;;;;;5230440;28;20201;-61
2021/08/05 07:52:41;;;;;;;5.13;1.10;;;23.10;99.90;;;;;;5229491;28;20221;-56
2021/08/05 07:55:16;;;;;;;1.95;1.25;;;23.10;99.90;;;;;;5229371;28;20205;-59
2021/08/05 07:57:50;;;;;;;3.83;1.10;;;23.20;99.90;;;;;;5230047;28;20429;-60
2021/08/05 08:00:22;;;;;;;1.30;0.75;;;23.30;99.90;;;;;;5230184;28;20216;-60
2021/08/05 08:02:54;;;;;;;1.65;0.93;;;23.10;99.90;;;;;;5228715;28;20225;-59
2021/08/05 08:05:26;;;;;;;2.90;0.90;;;23.00;99.90;;;;;;5229260;28;20229;-56
2021/08/05 08:08:00;;;;;;;1.92;0.95;;;23.10;99.90;;;;;;5230167;28;20257;-62
2021/08/05 08:10:35;;;;;;;3.00;1.00;;;22.80;99.90;;;;;;5228794;28;20263;-58
2021/08/05 08:13:26;;;;;;;1.67;0.90;;;22.50;99.90;;;;;;5229849;28;20325;-58
2021/08/05 08:15:58;;;;;;;1.33;0.93;;;22.40;99.90;;;;;;5228892;28;20536;-59
2021/08/05 08:18:30;;;;;;;1.70;1.00;;;22.10;99.90;;;;;;5228490;28;20237;-60
2021/08/05 08:21:02;;;;;;;1.63;0.80;;;21.90;99.90;;;;;;5229628;28;20205;-59
2021/08/05 08:23:37;;;;;;;2.05;1.17;;;21.80;99.90;;;;;;5227503;28;20233;-60
2021/08/05 08:26:09;;;;;;;2.35;0.88;;;21.80;99.90;;;;;;5228476;28;20240;-60
2021/08/05 08:28:44;;;;;;;1.85;1.08;;;22.10;99.90;;;;;;5229261;28;20229;-57
2021/08/05 08:31:16;;;;;;;1.75;1.00;;;22.30;99.90;;;;;;5229381;28;20208;-61
2021/08/05 08:33:48;;;;;;;1.73;1.00;;;22.00;99.90;;;;;;5228029;28;20287;-61
2021/08/05 08:36:20;;;;;;;2.75;0.88;;;21.90;99.90;;;;;;5228946;28;20209;-61
2021/08/05 08:38:53;;;;;;;5.53;0.88;;;21.80;99.90;;;;;;5227880;28;20234;-58
2021/08/05 08:41:25;;;;;;;2.33;1.02;;;21.80;99.90;;;;;;5228232;28;20205;-62
2021/08/05 08:43:57;;;;;;;4.40;1.10;;;22.20;99.90;;;;;;5227674;28;20237;-59
2021/08/05 08:46:36;;;;;;;1.20;0.88;;;22.40;99.90;;;;;;5229484;28;20221;-63
2021/08/05 08:49:11;;;;;;;4.22;1.17;;;22.60;99.90;;;;;;5229394;28;20229;-62
2021/08/05 08:51:45;;;;;;;1.88;0.85;;;22.80;99.90;;;;;;5228071;28;20200;-59
2021/08/05 08:54:18;;;;;;;2.60;1.15;;;22.80;99.90;;;;;;5228540;28;20227;-59
2021/08/05 08:56:53;;;;;;;1.50;0.90;;;22.70;99.90;;;;;;5228638;28;20209;-58
2021/08/05 08:59:26;;;;;;;1.00;0.68;;;22.70;99.90;;;;;;5228753;28;20241;-58
2021/08/05 09:01:58;;;;;;;1.10;0.70;;;22.40;99.90;;;;;;5228601;28;20213;-62
2021/08/05 09:04:33;;;;;;;0.90;0.73;;;22.00;99.90;;;;;;5227928;28;20232;-57
2021/08/05 09:07:05;;;;;;;2.42;1.00;;;21.80;99.90;;;;;;5228689;28;20307;-58
2021/08/05 09:09:37;;;;;;;0.98;0.82;;;21.80;99.90;;;;;;5228252;28;20233;-64
2021/08/05 09:12:16;;;;;;;1.90;0.90;;;21.90;99.90;;;;;;5228506;28;20197;-60
2021/08/05 09:14:53;;;;;;;2.55;1.05;;;22.20;99.90;;;;;;5227110;28;20202;-62
2021/08/05 09:17:33;;;;;;;1.45;1.00;;;22.20;99.90;;;;;;5216030;28;20310;-60
2021/08/05 09:20:11;;;;;;;1.98;0.93;;;22.00;99.90;;;;;;5207821;28;20190;-58
2021/08/05 09:22:45;;;;;;;1.42;1.10;;;21.60;99.90;;;;;;5208204;28;20490;-63
2021/08/05 09:25:34;;;;;;;1.95;1.10;;;21.40;99.90;;;;;;5208043;28;20229;-63
2021/08/05 09:28:15;;;;;;;1.92;1.10;;;21.40;99.90;;;;;;5207440;28;20190;-58
2021/08/05 09:30:47;;;;;;;1.70;0.88;;;21.50;99.90;;;;;;5206909;28;20547;-60
2021/08/05 09:33:19;;;;;;;3.55;0.98;;;21.80;99.90;;;;;;5207093;28;20202;-59
2021/08/05 09:35:51;;;;;;;4.47;1.08;;;22.20;99.90;;;;;;5208432;28;20230;-58
2021/08/05 09:38:28;;;;;;;4.72;1.45;;;22.40;99.90;;;;;;5206900;28;20201;-58
2021/08/05 09:41:03;;;;;;;5.78;1.73;;;22.50;99.90;;;;;;5207957;28;20209;-57
2021/08/05 09:43:36;;;;;;;2.50;0.80;;;22.20;99.90;;;;;;5206592;28;20201;-59
2021/08/05 09:46:10;;;;;;;3.50;1.25;;;22.10;99.90;;;;;;5207526;28;20230;-59
2021/08/05 09:48:44;;;;;;;1.27;0.70;;;22.00;99.90;;;;;;5222082;28;20229;-58
2021/08/05 09:51:17;;;;;;;2.55;1.00;;;22.10;99.90;;;;;;5227540;28;20302;-58
2021/08/05 09:53:56;;;;;;;2.80;0.70;;;22.20;99.90;;;;;;5228453;28;20648;-58
2021/08/05 09:56:30;;;;;;;1.20;0.90;;;22.00;99.90;;;;;;5228531;28;20504;-57
2021/08/05 09:59:17;;;;;;;2.95;1.05;;;21.70;99.90;;;;;;5228201;28;20583;-61
2021/08/05 10:02:01;;;;;;;1.70;0.98;;;21.50;99.90;;;;;;5227783;28;20225;-58
2021/08/05 10:04:35;;;;;;;1.67;1.10;;;21.40;99.90;;;;;;5226918;28;20247;-59
2021/08/05 10:07:08;;;;;;;2.22;1.17;;;21.50;99.90;;;;;;5227451;28;20229;-60
2021/08/05 10:09:41;;;;;;;1.58;1.00;;;21.70;99.90;;;;;;5227998;28;20225;-60
2021/08/05 10:12:25;;;;;;;2.28;1.15;;;21.50;99.90;;;;;;5226846;28;20209;-64
2021/08/05 10:15:09;;;;;;;2.88;1.08;;;21.50;99.90;;;;;;5227889;28;20752;-60
2021/08/05 10:17:43;;;;;;;1.23;1.00;;;21.60;99.90;;;;;;5227812;28;20189;-61
2021/08/05 10:20:16;;;;;;;1.50;0.93;;;21.50;99.90;;;;;;5227308;28;20549;-62
2021/08/05 10:22:49;;;;;;;2.75;1.10;;;21.30;99.90;;;;;;5228089;28;20205;-61
2021/08/05 10:25:25;;;;;;;2.20;1.02;;;21.20;99.90;;;;;;5230075;28;20225;-64
2021/08/05 10:28:01;;;;;;;2.13;0.90;;;21.10;99.90;;;;;;5231798;28;20221;-62
2021/08/05 10:30:33;;;;;;;2.50;1.23;;;21.20;99.90;;;;;;5231456;28;20233;-62
2021/08/05 10:33:07;;;;;;;2.17;1.17;;;21.30;99.90;;;;;;5231901;28;20205;-62
2021/08/05 10:35:40;;;;;;;3.33;1.00;;;21.10;99.90;;;;;;5231650;28;20620;-61
2021/08/05 10:38:15;;;;;;;2.65;0.98;;;21.10;99.90;;;;;;5231872;28;20202;-63
2021/08/05 10:40:52;;;;;;;1.90;1.10;;;21.10;99.90;;;;;;5231710;28;20661;-63
2021/08/05 10:43:25;;;;;;;2.22;0.90;;;20.80;99.90;;;;;;5231298;28;20209;-63
2021/08/05 10:45:58;;;;;;;2.08;1.00;;;20.80;99.90;;;;;;5231250;28;20244;-65
2021/08/05 10:48:30;;;;;;;3.28;1.20;;;20.70;99.90;;;;;;5223098;28;20217;-62
2021/08/05 10:51:02;;;;;;;2.28;0.95;;;20.80;99.90;;;;;;5210975;28;20591;-62
2021/08/05 10:53:45;;;;;;;2.17;1.20;;;20.90;99.90;;;;;;5197641;28;20500;-64
2021/08/05 10:56:30;;;;;;;2.20;1.10;;;21.00;99.90;;;;;;5231311;28;20226;-62
2021/08/05 10:59:13;;;;;;;2.58;1.15;;;21.00;99.90;;;;;;5229674;28;20244;-59
2021/08/05 11:01:56;;;;;;;3.75;1.17;;;21.10;99.90;;;;;;5210539;28;20237;-62
2021/08/05 11:04:34;;;;;;;1.75;0.90;;;20.90;99.90;;;;;;5209450;28;20206;-62
2021/08/05 11:07:33;;;;;;;1.48;1.23;;;21.00;99.90;;;;;;5209170;28;20242;-64
2021/08/05 11:10:16;;;;;;;2.45;1.10;;;21.00;99.90;;;;;;5209687;28;20190;-62
2021/08/05 11:13:08;;;;;;;1.42;1.05;;;21.00;99.90;;;;;;5208290;28;20197;-63
2021/08/05 11:15:40;;;;;;;2.83;1.17;;;21.00;99.90;;;;;;5208561;28;20237;-61
2021/08/05 11:18:18;;;;;;;1.65;0.95;;;20.90;99.90;;;;;;5208444;28;20267;-63
2021/08/05 11:20:50;;;;;;;2.70;1.20;;;20.90;99.90;;;;;;5207916;28;20611;-63
2021/08/05 11:23:34;;;;;;;2.08;1.20;;;20.90;99.90;;;;;;5191835;28;20206;-61
2021/08/05 11:26:11;;;;;;;1.48;0.88;;;20.90;99.90;;;;;;5207706;28;20324;-63
2021/08/05 11:28:48;;;;;;;3.00;1.05;;;21.10;99.90;;;;;;5208204;28;20202;-63
2021/08/05 11:31:31;;;;;;;1.50;0.90;;;21.20;99.90;;;;;;5208280;28;20222;-62
2021/08/05 11:34:08;;;;;;;2.17;0.98;;;21.20;99.90;;;;;;5208205;28;20206;-63
2021/08/05 11:36:44;;;;;;;2.08;0.93;;;21.20;99.90;;;;;;5211576;28;20237;-63
2021/08/05 11:39:23;;;;;;;1.70;1.00;;;21.30;99.90;;;;;;5212072;28;20271;-60
2021/08/05 11:42:18;;;;;;;1.63;0.70;;;21.40;99.90;;;;;;5228269;28;20546;-58
2021/08/05 11:45:07;;;;;;;1.50;0.95;;;21.30;99.90;;;;;;5211820;28;20592;-63
2021/08/05 11:47:42;;;;;;;1.38;0.90;;;21.30;99.90;;;;;;5224784;28;20203;-61
2021/08/05 11:50:16;;;;;;;1.80;0.90;;;21.20;99.90;;;;;;5208909;28;20205;-59
2021/08/05 11:53:09;;;;;;;2.80;0.90;;;21.20;99.90;;;;;;5222462;28;20226;-62
2021/08/05 11:55:47;;;;;;;1.92;1.10;;;21.10;99.90;;;;;;5220062;28;20525;-63
2021/08/05 11:58:19;;;;;;;2.05;0.80;;;21.30;99.90;;;;;;5229797;28;20244;-62
2021/08/05 12:00:51;;;;;;;1.10;0.73;;;21.30;99.90;;;;;;5229417;28;20510;-60
2021/08/05 12:03:28;;;;;;;1.63;1.00;;;21.20;99.90;;;;;;5230071;28;20478;-59
2021/08/05 12:06:00;;;;;;;1.33;0.73;;;21.00;99.90;;;;;;5229706;28;20209;-63
2021/08/05 12:08:32;;;;;;;1.85;0.60;;;20.90;99.90;;;;;;5229962;28;20206;-61
2021/08/05 12:11:04;;;;;;;1.17;0.88;;;20.80;99.90;;;;;;5230095;28;20626;-60
2021/08/05 12:13:40;;;;;;;2.85;1.05;;;20.80;99.90;;;;;;5212259;28;20539;-61
2021/08/05 12:16:12;;;;;;;1.85;0.90;;;21.00;99.90;;;;;;5229891;28;20502;-63
2021/08/05 12:18:44;;;;;;;1.10;0.68;;;21.00;99.90;;;;;;5229818;28;20288;-63
2021/08/05 12:21:17;;;;;;;1.60;0.93;;;21.00;99.90;;;;;;5228811;28;20292;-60
2021/08/05 12:23:52;;;;;;;1.63;0.70;;;21.00;99.90;;;;;;5229769;28;20205;-66
2021/08/05 12:26:36;;;;;;;1.77;0.80;;;21.10;99.90;;;;;;5229640;28;20217;-62
2021/08/05 12:29:11;;;;;;;2.72;1.10;;;20.90;99.90;;;;;;5228306;28;20225;-63
2021/08/05 12:31:44;;;;;;;0.95;0.73;;;20.90;99.90;;;;;;5229508;28;20228;-62
2021/08/05 12:34:18;;;;;;;2.10;0.82;;;20.90;99.90;;;;;;5228395;28;20301;-63
2021/08/05 12:36:51;;;;;;;2.08;0.93;;;21.10;99.90;;;;;;5229301;28;20239;-62
2021/08/05 12:39:25;;;;;;;1.13;0.77;;;21.10;99.90;;;;;;5229040;28;20214;-58
2021/08/05 12:41:57;;;;;;;2.90;0.80;;;21.20;99.90;;;;;;5228356;28;20228;-59
2021/08/05 12:44:33;;;;;;;1.20;0.80;;;21.10;99.90;;;;;;5227966;28;20201;-58
2021/08/05 12:47:06;;;;;;;1.40;0.88;;;21.10;99.90;;;;;;5227546;28;20217;-57
2021/08/05 12:49:39;;;;;;;1.40;0.70;;;21.10;99.90;;;;;;5227964;28;20520;-55
2021/08/05 12:52:16;;;;;;;1.02;0.90;;;20.80;99.90;;;;;;5228730;28;20280;-59
2021/08/05 12:54:56;;;;;;;1.77;0.80;;;20.80;99.90;;;;;;5229235;28;20554;-55
2021/08/05 12:57:34;;;;;;;1.65;0.93;;;20.80;99.90;;;;;;5227209;28;20248;-57
2021/08/05 13:00:28;;;;;;;1.08;0.60;;;20.90;99.90;;;;;;5228656;28;20220;-56
2021/08/05 13:03:04;;;;;;;1.00;0.77;;;20.90;99.90;;;;;;5228883;28;20260;-59
2021/08/05 13:05:57;;;;;;;1.63;0.68;;;21.00;99.90;;;;;;5228525;28;20779;-56
2021/08/05 13:08:33;;;;;;;1.60;0.90;;;20.90;99.90;;;;;;5228955;28;20507;-56
2021/08/05 13:11:12;;;;;;;2.72;0.90;;;21.00;99.90;;;;;;5228569;28;20208;-55
2021/08/05 13:13:54;;;;;;;4.05;1.08;;;21.00;99.90;;;;;;5228690;28;20221;-58
2021/08/05 13:16:31;;;;;;;1.95;0.90;;;21.10;99.90;;;;;;5228595;28;20194;-53
2021/08/05 13:19:11;;;;;;;1.33;0.77;;;21.10;99.90;;;;;;5224381;28;20705;-58
2021/08/05 13:21:46;;;;;;;2.83;1.02;;;21.00;99.90;;;;;;5227739;28;20212;-59
2021/08/05 13:24:28;;;;;;;1.77;0.80;;;20.90;99.90;;;;;;5228661;28;20248;-59